createdAt,value
2023-04-18T00:01:44.757Z,84.35
2023-04-18T00:04:12.422Z,84.34
2023-04-18T00:06:39.435Z,84.43
2023-04-18T00:09:07.436Z,84.67
2023-04-18T00:11:34.174Z,84.73
2023-04-18T00:14:00.790Z,84.18
2023-04-18T00:16:27.614Z,84.27
2023-04-18T00:18:54.306Z,84.58
2023-04-18T00:21:20.935Z,84.14
2023-04-18T00:23:47.571Z,84.29
2023-04-18T00:26:15.597Z,84.19
2023-04-18T00:28:42.185Z,84.09
2023-04-18T00:31:08.803Z,84.43
2023-04-18T00:33:35.507Z,84.36
2023-04-18T00:36:02.315Z,84.42
2023-04-18T00:38:28.927Z,84.28
2023-04-18T00:40:55.597Z,84.32
2023-04-18T00:43:24.175Z,84.58
2023-04-18T00:45:50.916Z,84.30
2023-04-18T00:48:18.103Z,84.26
2023-04-18T00:50:45.376Z,84.52
2023-04-18T00:53:12.021Z,84.45
2023-04-18T00:55:38.882Z,84.31
2023-04-18T00:58:05.574Z,84.34
2023-04-18T01:00:34.046Z,84.44
2023-04-18T01:03:00.785Z,84.29
2023-04-18T01:05:27.792Z,84.25
2023-04-18T01:07:55.016Z,84.41
2023-04-18T01:10:21.870Z,84.32
2023-04-18T01:12:48.472Z,84.49
2023-04-18T01:15:15.142Z,84.31
2023-04-18T01:17:43.194Z,84.42
2023-04-18T01:20:10.756Z,84.73
2023-04-18T01:22:37.293Z,84.66
2023-04-18T01:25:10.238Z,84.68
2023-04-18T01:27:36.834Z,84.75
2023-04-18T01:30:03.842Z,84.76
2023-04-18T01:32:30.589Z,84.64
2023-04-18T01:34:57.136Z,85.22
2023-04-18T01:37:23.748Z,84.74
2023-04-18T01:39:50.498Z,84.66
2023-04-18T01:42:18.504Z,84.52
2023-04-18T01:44:45.078Z,84.31
2023-04-18T01:47:11.647Z,84.45
2023-04-18T01:49:38.246Z,84.33
2023-04-18T01:52:04.844Z,84.21
2023-04-18T01:54:31.420Z,84.47
2023-04-18T01:56:57.953Z,84.53
2023-04-18T01:59:25.910Z,84.61
2023-04-18T02:01:52.748Z,84.65
2023-04-18T02:04:19.418Z,84.83
2023-04-18T02:06:45.984Z,84.91
2023-04-18T02:09:12.649Z,84.75
2023-04-18T02:11:39.343Z,84.91
2023-04-18T02:14:05.938Z,85.03
2023-04-18T02:16:34.005Z,84.92
2023-04-18T02:19:00.748Z,84.94
2023-04-18T02:21:27.477Z,84.90
2023-04-18T02:23:54.108Z,85.11
2023-04-18T02:26:20.704Z,85.00
2023-04-18T02:28:47.403Z,85.05
2023-04-18T02:31:15.746Z,84.93
2023-04-18T02:33:45.509Z,84.89
2023-04-18T02:36:12.421Z,84.70
2023-04-18T02:38:39.079Z,85.04
2023-04-18T02:41:05.719Z,85.17
2023-04-18T02:43:33.570Z,85.08
2023-04-18T02:46:00.276Z,85.00
2023-04-18T02:48:27.005Z,85.15
2023-04-18T02:51:02.003Z,84.95
2023-04-18T02:53:28.678Z,84.85
2023-04-18T02:55:55.283Z,84.93
2023-04-18T02:58:21.872Z,85.03
2023-04-18T03:00:48.532Z,84.79
2023-04-18T03:03:15.232Z,84.63
2023-04-18T03:05:42.335Z,84.69
2023-04-18T03:08:10.340Z,84.76
2023-04-18T03:10:37.214Z,84.78
2023-04-18T03:13:03.896Z,84.77
2023-04-18T03:15:30.511Z,84.65
2023-04-18T03:17:57.367Z,84.38
2023-04-18T03:20:24.135Z,84.65
2023-04-18T03:22:50.849Z,84.73
2023-04-18T03:25:18.999Z,84.65
2023-04-18T03:27:45.715Z,84.91
2023-04-18T03:30:12.467Z,84.62
2023-04-18T03:32:39.068Z,84.64
2023-04-18T03:35:06.060Z,84.77
2023-04-18T03:37:32.630Z,84.63
2023-04-18T03:39:59.212Z,84.69
2023-04-18T03:42:27.271Z,84.60
2023-04-18T03:44:53.897Z,84.49
2023-04-18T03:47:20.468Z,84.55
2023-04-18T03:49:47.088Z,84.66
2023-04-18T03:52:13.688Z,84.63
2023-04-18T03:54:40.284Z,84.79
2023-04-18T03:57:06.872Z,84.93
2023-04-18T03:59:34.808Z,84.68
2023-04-18T04:02:01.557Z,85.06
2023-04-18T04:04:28.368Z,84.97
2023-04-18T04:06:55.085Z,84.83
2023-04-18T04:09:21.686Z,84.96
2023-04-18T04:11:48.348Z,84.41
2023-04-18T04:14:15.147Z,84.94
2023-04-18T04:16:43.400Z,84.94
2023-04-18T04:19:10.180Z,84.86
2023-04-18T04:21:36.768Z,84.98
2023-04-18T04:24:03.404Z,84.74
2023-04-18T04:26:30.107Z,84.70
2023-04-18T04:28:56.684Z,84.99
2023-04-18T04:31:23.504Z,84.84
2023-04-18T04:33:51.517Z,84.97
2023-04-18T04:36:18.978Z,84.83
2023-04-18T04:38:45.749Z,84.66
2023-04-18T04:41:12.521Z,84.79
2023-04-18T04:43:39.168Z,84.93
2023-04-18T04:46:05.841Z,84.81
2023-04-18T04:48:32.485Z,84.71
2023-04-18T04:51:01.221Z,84.87
2023-04-18T04:53:29.078Z,84.91
2023-04-18T04:55:55.763Z,85.21
2023-04-18T04:58:22.374Z,84.92
2023-04-18T05:00:48.982Z,84.76
2023-04-18T05:03:15.686Z,85.03
2023-04-18T05:05:42.731Z,84.95
2023-04-18T05:08:10.688Z,84.81
2023-04-18T05:10:37.408Z,84.69
2023-04-18T05:13:04.363Z,84.54
2023-04-18T05:15:31.120Z,84.55
2023-04-18T05:17:57.852Z,84.42
2023-04-18T05:20:24.729Z,84.63
2023-04-18T05:22:51.331Z,84.42
2023-04-18T05:25:19.657Z,84.50
2023-04-18T05:27:46.258Z,84.35
2023-04-18T05:30:13.214Z,83.72
2023-04-18T05:32:39.894Z,82.43
2023-04-18T05:35:07.441Z,81.78
2023-04-18T05:37:34.278Z,81.41
2023-04-18T05:40:01.296Z,80.70
2023-04-18T05:42:29.291Z,80.33
2023-04-18T05:44:56.026Z,80.19
2023-04-18T05:47:22.614Z,80.48
2023-04-18T05:49:49.490Z,80.61
2023-04-18T05:52:16.128Z,80.68
2023-04-18T05:54:42.955Z,80.55
2023-04-18T05:57:09.596Z,80.42
2023-04-18T05:59:37.686Z,79.48
2023-04-18T06:02:04.346Z,79.04
2023-04-18T06:04:31.126Z,79.28
2023-04-18T06:06:58.020Z,78.79
2023-04-18T06:09:24.584Z,78.27
2023-04-18T06:11:51.176Z,78.10
2023-04-18T06:14:17.848Z,77.60
2023-04-18T06:16:45.999Z,77.83
2023-04-18T06:19:12.563Z,77.48
2023-04-18T06:21:39.142Z,78.29
2023-04-18T06:24:06.686Z,77.88
2023-04-18T06:26:33.339Z,77.11
2023-04-18T06:28:59.978Z,76.95
2023-04-18T06:31:26.890Z,76.01
2023-04-18T06:33:54.961Z,75.09
2023-04-18T06:36:21.832Z,75.94
2023-04-18T06:38:48.913Z,75.47
2023-04-18T06:41:15.693Z,75.18
2023-04-18T06:43:52.068Z,75.62
2023-04-18T06:46:28.738Z,75.38
2023-04-18T06:48:56.855Z,75.52
2023-04-18T06:51:23.499Z,75.17
2023-04-18T06:53:50.140Z,75.34
2023-04-18T06:56:16.755Z,74.62
2023-04-18T06:58:43.650Z,75.29
2023-04-18T07:01:10.375Z,74.90
2023-04-18T07:03:37.088Z,74.56
2023-04-18T07:06:05.814Z,74.55
2023-04-18T07:08:32.409Z,75.63
2023-04-18T07:10:59.058Z,74.51
2023-04-18T07:13:25.675Z,74.86
2023-04-18T07:15:52.653Z,74.04
2023-04-18T07:18:30.177Z,73.45
2023-04-18T07:21:05.226Z,73.45
2023-04-18T07:23:31.913Z,73.84
2023-04-18T07:25:58.863Z,73.67
2023-04-18T07:28:25.577Z,73.58
2023-04-18T07:30:52.569Z,73.61
2023-04-18T07:33:19.523Z,73.42
2023-04-18T07:35:46.196Z,72.71
2023-04-18T07:38:14.321Z,72.66
2023-04-18T07:40:40.947Z,72.54
2023-04-18T07:43:07.838Z,71.86
2023-04-18T07:45:34.502Z,71.27
2023-04-18T07:48:01.314Z,71.73
2023-04-18T07:50:28.162Z,71.08
2023-04-18T07:52:54.770Z,71.62
2023-04-18T07:55:22.849Z,71.87
2023-04-18T07:57:49.555Z,70.64
2023-04-18T08:00:16.951Z,70.67
2023-04-18T08:02:43.787Z,70.60
2023-04-18T08:05:10.858Z,70.63
2023-04-18T08:07:37.805Z,70.79
2023-04-18T08:10:05.156Z,68.68
2023-04-18T08:12:33.235Z,69.64
2023-04-18T08:15:00.023Z,69.74
2023-04-18T08:17:26.770Z,69.40
2023-04-18T08:19:53.464Z,68.14
2023-04-18T08:22:20.132Z,68.27
2023-04-18T08:25:00.970Z,68.24
2023-04-18T08:27:28.096Z,68.47
2023-04-18T08:29:56.219Z,68.65
2023-04-18T08:32:22.912Z,67.94
2023-04-18T08:34:49.644Z,67.77
2023-04-18T08:37:16.380Z,67.96
2023-04-18T08:39:43.105Z,67.53
2023-04-18T08:42:10.486Z,67.02
2023-04-18T08:44:37.722Z,67.36
2023-04-18T08:47:08.217Z,67.92
2023-04-18T08:49:34.959Z,68.10
2023-04-18T08:52:05.566Z,68.61
2023-04-18T08:54:32.393Z,68.78
2023-04-18T08:57:06.007Z,68.30
2023-04-18T08:59:32.695Z,68.50
2023-04-18T09:01:59.467Z,68.11
2023-04-18T09:04:35.466Z,69.13
2023-04-18T09:07:03.145Z,68.51
2023-04-18T09:09:41.026Z,68.95
2023-04-18T09:12:08.892Z,69.15
2023-04-18T09:14:35.994Z,69.49
2023-04-18T09:17:04.063Z,68.66
2023-04-18T09:19:30.996Z,68.87
2023-04-18T09:22:00.508Z,68.82
2023-04-18T09:24:27.564Z,68.89
2023-04-18T09:26:55.745Z,69.15
2023-04-18T09:29:23.320Z,68.23
2023-04-18T09:31:58.246Z,68.78
2023-04-18T09:34:28.767Z,69.13
2023-04-18T09:37:10.718Z,69.43
2023-04-18T09:39:38.672Z,69.07
2023-04-18T09:42:05.998Z,68.83
2023-04-18T09:44:32.785Z,70.24
2023-04-18T09:46:59.592Z,68.92
2023-04-18T09:49:26.823Z,69.08
2023-04-18T09:51:55.126Z,69.40
2023-04-18T09:54:24.754Z,68.34
2023-04-18T09:56:52.494Z,68.87
2023-04-18T09:59:36.952Z,68.55
2023-04-18T10:02:08.497Z,68.42
2023-04-18T10:04:36.033Z,67.51
2023-04-18T10:07:03.346Z,68.37
2023-04-18T10:09:34.471Z,68.24
2023-04-18T10:12:01.198Z,68.29
2023-04-18T10:14:30.609Z,67.75
2023-04-18T10:16:59.245Z,67.65
2023-04-18T10:19:27.160Z,67.70
2023-04-18T10:21:54.808Z,66.84
2023-04-18T10:24:48.696Z,67.11
2023-04-18T10:27:16.093Z,66.16
2023-04-18T10:29:51.145Z,66.38
2023-04-18T10:32:19.362Z,66.29
2023-04-18T10:34:47.168Z,65.63
2023-04-18T10:37:15.930Z,65.60
2023-04-18T10:39:55.785Z,66.33
2023-04-18T10:43:00.519Z,65.64
2023-04-18T10:45:28.031Z,66.55
2023-04-18T10:48:22.263Z,65.80
2023-04-18T10:51:14.947Z,65.65
2023-04-18T10:53:48.376Z,65.78
2023-04-18T10:56:16.512Z,65.39
2023-04-18T10:58:49.251Z,64.79
2023-04-18T11:01:24.086Z,65.08
2023-04-18T11:03:51.711Z,64.47
2023-04-18T11:06:18.561Z,65.10
2023-04-18T11:08:45.557Z,64.85
2023-04-18T11:11:13.443Z,64.68
2023-04-18T11:13:55.750Z,64.82
2023-04-18T11:16:26.757Z,65.85
2023-04-18T11:18:53.467Z,64.46
2023-04-18T11:21:20.170Z,63.76
2023-04-18T11:23:47.442Z,63.51
2023-04-18T11:26:14.334Z,64.51
2023-04-18T11:28:41.776Z,64.49
2023-04-18T11:31:09.840Z,63.77
2023-04-18T11:33:36.435Z,63.71
2023-04-18T11:36:03.378Z,63.56
2023-04-18T11:38:30.565Z,64.15
2023-04-18T11:40:57.307Z,64.33
2023-04-18T11:43:25.198Z,63.72
2023-04-18T11:45:53.259Z,64.21
2023-04-18T11:48:21.635Z,63.90
2023-04-18T11:50:48.406Z,63.94
2023-04-18T11:53:15.086Z,63.79
2023-04-18T11:55:41.809Z,62.71
2023-04-18T11:58:08.491Z,62.63
2023-04-18T12:00:36.443Z,62.72
2023-04-18T12:03:04.522Z,62.59
2023-04-18T12:05:34.968Z,63.08
2023-04-18T12:08:09.758Z,62.89
2023-04-18T12:10:36.778Z,62.58
2023-04-18T12:13:07.170Z,63.52
2023-04-18T12:15:37.200Z,63.11
2023-04-18T12:18:05.614Z,63.01
2023-04-18T12:20:38.116Z,63.39
2023-04-18T12:23:05.631Z,62.88
2023-04-18T12:25:32.688Z,63.19
2023-04-18T12:28:00.682Z,62.50
2023-04-18T12:30:28.640Z,62.84
2023-04-18T12:32:56.558Z,63.68
2023-04-18T12:35:23.839Z,64.19
2023-04-18T12:37:53.640Z,62.96
2023-04-18T12:40:21.211Z,62.82
2023-04-18T12:42:47.945Z,63.04
2023-04-18T12:45:15.867Z,63.44
2023-04-18T12:47:46.300Z,63.33
2023-04-18T12:50:16.568Z,64.04
2023-04-18T12:52:43.281Z,63.71
2023-04-18T12:55:12.352Z,63.54
2023-04-18T12:57:39.158Z,63.29
2023-04-18T13:00:07.082Z,63.33
2023-04-18T13:02:33.808Z,63.65
2023-04-18T13:05:00.775Z,63.55
2023-04-18T13:07:27.604Z,62.88
2023-04-18T13:09:54.209Z,62.85
2023-04-18T13:12:22.267Z,63.10
2023-04-18T13:14:49.093Z,63.01
2023-04-18T13:17:15.764Z,63.42
2023-04-18T13:19:42.563Z,63.51
2023-04-18T13:22:09.223Z,63.27
2023-04-18T13:24:35.972Z,63.36
2023-04-18T13:27:02.622Z,62.81
2023-04-18T13:29:30.625Z,63.01
2023-04-18T13:31:57.294Z,63.11
2023-04-18T13:34:24.063Z,63.38
2023-04-18T13:36:51.277Z,62.70
2023-04-18T13:39:18.463Z,63.32
2023-04-18T13:41:45.117Z,63.35
2023-04-18T13:44:11.790Z,63.33
2023-04-18T13:46:39.888Z,62.68
2023-04-18T13:49:06.527Z,62.12
2023-04-18T13:51:33.630Z,61.97
2023-04-18T13:54:00.339Z,62.09
2023-04-18T13:56:27.329Z,62.89
2023-04-18T13:58:54.307Z,62.63
2023-04-18T14:01:21.833Z,63.21
2023-04-18T14:03:50.166Z,62.43
2023-04-18T14:06:17.048Z,62.93
2023-04-18T14:08:43.615Z,63.29
2023-04-18T14:11:10.281Z,62.69
2023-04-18T14:13:36.959Z,62.73
2023-04-18T14:16:03.857Z,62.13
2023-04-18T14:18:30.531Z,61.95
2023-04-18T14:20:58.565Z,61.87
2023-04-18T14:23:25.435Z,62.40
2023-04-18T14:25:52.199Z,62.01
2023-04-18T14:28:18.907Z,62.04
2023-04-18T14:30:45.724Z,62.57
2023-04-18T14:33:12.740Z,62.31
2023-04-18T14:35:39.432Z,62.31
2023-04-18T14:38:07.433Z,61.96
2023-04-18T14:40:34.166Z,62.49
2023-04-18T14:43:00.855Z,61.87
2023-04-18T14:45:27.566Z,61.44
2023-04-18T14:47:54.696Z,61.22
2023-04-18T14:50:21.516Z,61.92
2023-04-18T14:52:48.142Z,62.27
2023-04-18T14:55:16.218Z,61.60
2023-04-18T14:57:42.787Z,61.46
2023-04-18T15:00:10.190Z,60.96
2023-04-18T15:02:37.237Z,61.30
2023-04-18T15:05:04.493Z,61.37
2023-04-18T15:07:31.184Z,61.12
2023-04-18T15:09:57.901Z,61.47
2023-04-18T15:12:26.234Z,61.57
2023-04-18T15:14:52.816Z,61.79
2023-04-18T15:17:19.692Z,62.03
2023-04-18T15:19:46.444Z,61.65
2023-04-18T15:22:13.287Z,61.34
2023-04-18T15:24:39.872Z,61.58
2023-04-18T15:27:06.486Z,60.84
2023-04-18T15:29:34.461Z,60.87
2023-04-18T15:32:01.137Z,60.29
2023-04-18T15:34:27.782Z,60.88
2023-04-18T15:36:54.486Z,60.42
2023-04-18T15:39:21.060Z,60.04
2023-04-18T15:41:47.684Z,60.02
2023-04-18T15:44:14.608Z,60.11
2023-04-18T15:46:42.883Z,60.69
2023-04-18T15:49:09.478Z,59.93
2023-04-18T15:51:36.177Z,59.32
2023-04-18T15:54:02.920Z,59.71
2023-04-18T15:56:31.217Z,59.15
2023-04-18T15:58:59.910Z,59.15
2023-04-18T16:01:26.754Z,59.01
2023-04-18T16:03:54.886Z,59.01
2023-04-18T16:06:21.579Z,58.91
2023-04-18T16:08:48.237Z,59.75
2023-04-18T16:11:15.115Z,58.78
2023-04-18T16:13:41.703Z,58.75
2023-04-18T16:16:08.595Z,57.70
2023-04-18T16:18:35.219Z,57.64
2023-04-18T16:21:03.531Z,57.68
2023-04-18T16:23:31.160Z,57.59
2023-04-18T16:25:57.814Z,57.06
2023-04-18T16:28:24.474Z,57.47
2023-04-18T16:30:52.074Z,57.01
2023-04-18T16:33:20.197Z,55.60
2023-04-18T16:35:46.972Z,55.68
2023-04-18T16:38:14.998Z,55.38
2023-04-18T16:40:41.634Z,55.29
2023-04-18T16:43:08.338Z,55.22
2023-04-18T16:45:35.019Z,55.43
2023-04-18T16:48:01.755Z,55.32
2023-04-18T16:50:28.328Z,55.75
2023-04-18T16:52:54.958Z,54.92
2023-04-18T16:55:23.216Z,55.67
2023-04-18T16:57:50.264Z,56.03
2023-04-18T17:00:17.299Z,56.18
2023-04-18T17:02:44.101Z,55.63
2023-04-18T17:05:10.760Z,55.49
2023-04-18T17:07:37.322Z,55.72
2023-04-18T17:10:04.419Z,55.69
2023-04-18T17:12:32.402Z,55.64
2023-04-18T17:14:58.994Z,55.92
2023-04-18T17:17:25.664Z,56.53
2023-04-18T17:19:52.285Z,56.98
2023-04-18T17:22:18.948Z,57.56
2023-04-18T17:24:45.517Z,57.95
2023-04-18T17:27:12.112Z,58.30
2023-04-18T17:29:40.155Z,58.38
2023-04-18T17:32:06.846Z,58.51
2023-04-18T17:34:33.578Z,59.13
2023-04-18T17:37:00.229Z,59.74
2023-04-18T17:39:26.796Z,59.66
2023-04-18T17:41:53.378Z,59.80
2023-04-18T17:44:20.142Z,59.72
2023-04-18T17:46:48.944Z,59.98
2023-04-18T17:49:17.083Z,60.40
2023-04-18T17:51:43.645Z,60.74
2023-04-18T17:54:10.267Z,60.97
2023-04-18T17:56:36.944Z,61.00
2023-04-18T17:59:03.561Z,61.11
2023-04-18T18:01:30.245Z,60.79
2023-04-18T18:03:58.700Z,61.02
2023-04-18T18:06:25.476Z,61.19
2023-04-18T18:08:52.079Z,61.66
2023-04-18T18:11:18.884Z,61.71
2023-04-18T18:13:45.482Z,61.48
2023-04-18T18:16:12.215Z,61.60
2023-04-18T18:18:38.952Z,61.94
2023-04-18T18:21:06.888Z,61.61
2023-04-18T18:23:33.533Z,61.65
2023-04-18T18:26:00.403Z,61.47
2023-04-18T18:28:27.014Z,61.42
2023-04-18T18:30:53.821Z,61.22
2023-04-18T18:33:20.848Z,61.47
2023-04-18T18:35:47.464Z,61.51
2023-04-18T18:38:15.583Z,61.19
2023-04-18T18:40:42.126Z,61.18
2023-04-18T18:43:08.745Z,61.22
2023-04-18T18:45:35.306Z,60.54
2023-04-18T18:48:01.957Z,60.99
2023-04-18T18:50:28.610Z,61.52
2023-04-18T18:52:55.243Z,61.21
2023-04-18T18:55:23.493Z,60.99
2023-04-18T18:57:50.348Z,60.52
2023-04-18T19:00:17.067Z,60.38
2023-04-18T19:02:43.841Z,59.88
2023-04-18T19:05:10.725Z,59.76
2023-04-18T19:07:37.353Z,59.59
2023-04-18T19:10:05.229Z,59.09
2023-04-18T19:12:33.246Z,58.52
2023-04-18T19:15:00.334Z,58.14
2023-04-18T19:17:27.030Z,58.27
2023-04-18T19:19:53.684Z,58.27
2023-04-18T19:22:20.370Z,58.79
2023-04-18T19:24:47.130Z,58.51
2023-04-18T19:27:13.777Z,58.62
2023-04-18T19:29:41.800Z,58.86
2023-04-18T19:32:08.511Z,58.78
2023-04-18T19:34:35.159Z,59.63
2023-04-18T19:37:01.836Z,59.59
2023-04-18T19:39:29.084Z,59.59
2023-04-18T19:41:55.813Z,60.12
2023-04-18T19:44:22.433Z,60.42
2023-04-18T19:46:50.408Z,60.71
2023-04-18T19:49:17.208Z,60.87
2023-04-18T19:51:43.947Z,61.27
2023-04-18T19:54:10.622Z,61.68
2023-04-18T19:56:37.192Z,62.08
2023-04-18T19:59:03.826Z,61.98
2023-04-18T20:01:30.696Z,62.60
2023-04-18T20:03:58.915Z,62.67
2023-04-18T20:06:25.969Z,63.18
2023-04-18T20:08:52.902Z,63.54
2023-04-18T20:11:19.789Z,63.75
2023-04-18T20:13:46.447Z,64.11
2023-04-18T20:16:13.179Z,64.22
2023-04-18T20:18:41.052Z,64.39
2023-04-18T20:21:09.871Z,64.70
2023-04-18T20:23:37.390Z,64.93
2023-04-18T20:26:04.210Z,65.45
2023-04-18T20:28:30.895Z,65.32
2023-04-18T20:30:58.100Z,65.59
2023-04-18T20:33:24.781Z,65.63
2023-04-18T20:35:51.401Z,66.01
2023-04-18T20:38:19.383Z,66.23
2023-04-18T20:40:45.996Z,66.29
2023-04-18T20:43:12.565Z,66.54
2023-04-18T20:45:39.185Z,66.71
2023-04-18T20:48:06.226Z,66.56
2023-04-18T20:50:32.831Z,66.90
2023-04-18T20:52:59.420Z,67.40
2023-04-18T20:55:27.471Z,67.54
2023-04-18T20:57:54.134Z,67.78
2023-04-18T21:00:20.898Z,67.87
2023-04-18T21:02:47.637Z,68.17
2023-04-18T21:05:14.379Z,68.37
2023-04-18T21:07:41.048Z,68.84
2023-04-18T21:10:08.386Z,68.88
2023-04-18T21:12:36.379Z,69.18
2023-04-18T21:15:03.407Z,69.61
2023-04-18T21:17:30.022Z,69.69
2023-04-18T21:19:56.622Z,70.16
2023-04-18T21:22:23.189Z,70.48
2023-04-18T21:24:49.829Z,70.57
2023-04-18T21:27:16.386Z,70.75
2023-04-18T21:29:44.333Z,71.01
2023-04-18T21:32:10.969Z,71.04
2023-04-18T21:34:37.592Z,70.99
2023-04-18T21:37:04.274Z,71.27
2023-04-18T21:39:30.858Z,71.41
2023-04-18T21:41:57.530Z,71.21
2023-04-18T21:44:24.157Z,71.52
2023-04-18T21:46:52.185Z,71.43
2023-04-18T21:49:18.942Z,71.14
2023-04-18T21:51:45.526Z,70.95
2023-04-18T21:54:12.288Z,71.09
2023-04-18T21:56:39.134Z,70.88
2023-04-18T21:59:05.818Z,71.07
2023-04-18T22:01:32.525Z,71.34
2023-04-18T22:04:00.649Z,71.20
2023-04-18T22:06:29.647Z,70.86
2023-04-18T22:08:56.368Z,70.90
2023-04-18T22:11:22.940Z,70.80
2023-04-18T22:13:49.596Z,70.75
2023-04-18T22:16:16.484Z,70.31
2023-04-18T22:18:43.030Z,70.24
2023-04-18T22:21:11.026Z,69.70
2023-04-18T22:23:37.671Z,69.40
2023-04-18T22:26:04.497Z,69.64
2023-04-18T22:28:31.094Z,69.49
2023-04-18T22:30:58.175Z,69.23
2023-04-18T22:33:25.023Z,69.21
2023-04-18T22:35:52.364Z,69.15
2023-04-18T22:38:20.446Z,68.35
2023-04-18T22:40:47.207Z,68.04
2023-04-18T22:43:13.837Z,67.97
2023-04-18T22:45:40.464Z,68.05
2023-04-18T22:48:07.092Z,68.10
2023-04-18T22:50:33.674Z,67.50
2023-04-18T22:53:00.526Z,67.59
2023-04-18T22:55:28.561Z,67.75
2023-04-18T22:57:55.169Z,68.00
2023-04-18T23:00:21.906Z,67.38
2023-04-18T23:02:48.699Z,67.70
2023-04-18T23:05:15.395Z,67.59
2023-04-18T23:07:42.041Z,67.86
2023-04-18T23:10:09.851Z,68.08
2023-04-18T23:12:37.843Z,67.86
2023-04-18T23:15:05.540Z,67.76
2023-04-18T23:17:32.336Z,67.92
2023-04-18T23:19:59.066Z,67.78
2023-04-18T23:22:25.718Z,68.06
2023-04-18T23:24:52.470Z,68.00
2023-04-18T23:27:19.307Z,68.08
2023-04-18T23:29:47.917Z,67.90
2023-04-18T23:32:14.632Z,67.77
2023-04-18T23:34:41.248Z,67.71
2023-04-18T23:37:08.009Z,67.38
2023-04-18T23:39:34.620Z,67.35
2023-04-18T23:42:01.395Z,67.19
2023-04-18T23:44:28.010Z,67.23
2023-04-18T23:46:56.043Z,66.93
2023-04-18T23:49:22.620Z,66.79
2023-04-18T23:51:49.230Z,66.45
2023-04-18T23:54:16.042Z,66.17
2023-04-18T23:56:42.829Z,65.15
2023-04-18T23:59:09.472Z,65.42
